Time;durP1;ratioP1;P1;durP2;ratioP2;P2;SDS_P1;SDS_P2;PMS_P1;PMS_P2;Temp;Humidity;BMP_temperature;BMP_pressure;BME280_temperature;BME280_humidity;BME280_pressure;Samples;Min_cycle;Max_cycle;Signal;HPM_P1;HPM_P2
2021/08/05 00:00:56;;;;;;;49.97;24.92;;;14.10;99.90;;;;;;5002821;28;20018;-66
2021/08/05 00:03:22;;;;;;;51.80;24.92;;;13.90;99.90;;;;;;5007062;28;20037;-66
2021/08/05 00:05:48;;;;;;;58.05;27.15;;;13.80;99.90;;;;;;5005612;28;20485;-65
2021/08/05 00:08:13;;;;;;;51.80;26.05;;;13.80;99.90;;;;;;5007223;28;20076;-66
2021/08/05 00:10:39;;;;;;;50.65;24.88;;;13.80;99.90;;;;;;5005466;28;20029;-66
2021/08/05 00:13:04;;;;;;;50.78;24.80;;;13.70;99.90;;;;;;5007373;28;20504;-66
2021/08/05 00:15:30;;;;;;;52.35;24.10;;;13.70;99.90;;;;;;5005880;28;20065;-66
2021/08/05 00:17:56;;;;;;;54.13;25.52;;;13.70;99.90;;;;;;5005126;28;20056;-66
2021/08/05 00:20:21;;;;;;;60.47;26.50;;;13.90;99.90;;;;;;4989309;28;20108;-66
2021/08/05 00:22:47;;;;;;;51.78;25.30;;;13.80;99.90;;;;;;5006183;28;20033;-66
2021/08/05 00:25:13;;;;;;;53.83;24.08;;;13.80;99.90;;;;;;4986167;28;20118;-66
2021/08/05 00:27:40;;;;;;;58.08;25.98;;;13.70;99.90;;;;;;5010556;28;20071;-66
2021/08/05 00:30:06;;;;;;;52.25;24.38;;;13.70;99.90;;;;;;5007126;28;20030;-66
2021/08/05 00:32:31;;;;;;;57.38;26.30;;;13.80;99.90;;;;;;4989359;28;20033;-65
2021/08/05 00:34:57;;;;;;;48.80;23.95;;;13.80;99.90;;;;;;5006661;28;20427;-66
2021/08/05 00:37:22;;;;;;;52.95;25.58;;;13.80;99.90;;;;;;5006728;28;20084;-66
2021/08/05 00:39:48;;;;;;;57.00;25.77;;;13.80;99.90;;;;;;5001998;28;20482;-66
2021/08/05 00:42:14;;;;;;;55.88;25.33;;;13.80;99.90;;;;;;5005272;28;20046;-66
2021/08/05 00:44:39;;;;;;;61.08;27.67;;;13.80;99.90;;;;;;5005933;28;20486;-66
2021/08/05 00:47:05;;;;;;;54.97;25.55;;;13.80;99.90;;;;;;5005145;28;20022;-66
2021/08/05 00:49:31;;;;;;;57.72;25.95;;;13.90;99.90;;;;;;5004152;28;20034;-66
2021/08/05 00:51:58;;;;;;;56.25;26.13;;;13.90;99.90;;;;;;5005796;28;20029;-66
2021/08/05 00:54:23;;;;;;;56.58;25.80;;;13.80;99.90;;;;;;5005213;28;20062;-66
2021/08/05 00:56:49;;;;;;;58.17;25.13;;;13.80;99.90;;;;;;5005496;28;20065;-66
2021/08/05 00:59:15;;;;;;;50.50;23.85;;;13.80;99.90;;;;;;5006897;28;20099;-66
2021/08/05 01:01:45;;;;;;;50.47;23.75;;;13.80;99.90;;;;;;5005820;28;20034;-66
2021/08/05 01:04:14;;;;;;;47.83;23.73;;;13.90;99.90;;;;;;5011456;28;20044;-66
2021/08/05 01:07:03;;;;;;;50.88;23.33;;;13.80;99.90;;;;;;5005171;28;20034;-66
2021/08/05 01:09:33;;;;;;;46.28;24.38;;;13.80;99.90;;;;;;5001485;28;20069;-66
2021/08/05 01:12:20;;;;;;;50.25;23.50;;;13.80;99.90;;;;;;5005868;28;20032;-66
2021/08/05 01:14:58;;;;;;;47.55;23.02;;;14.00;99.90;;;;;;5005078;28;20061;-66
2021/08/05 01:17:24;;;;;;;47.80;22.92;;;14.10;99.90;;;;;;5005444;28;20093;-66
2021/08/05 01:19:57;;;;;;;46.28;21.33;;;14.20;99.90;;;;;;5004755;28;20056;-66
2021/08/05 01:22:30;;;;;;;45.90;22.50;;;14.20;99.90;;;;;;5006207;28;20026;-66
2021/08/05 01:25:23;;;;;;;49.80;23.25;;;14.10;99.90;;;;;;4987157;28;20508;-66
2021/08/05 01:27:50;;;;;;;45.53;20.90;;;14.10;99.90;;;;;;4987400;28;20033;-66
2021/08/05 01:30:16;;;;;;;43.67;21.00;;;14.10;99.90;;;;;;5006468;28;20017;-66
2021/08/05 01:32:43;;;;;;;43.20;20.30;;;14.00;99.90;;;;;;5005715;28;20083;-66
2021/08/05 01:35:10;;;;;;;43.30;20.65;;;14.00;99.90;;;;;;5001975;28;20022;-66
2021/08/05 01:37:41;;;;;;;42.22;21.42;;;13.90;99.90;;;;;;5005993;28;20025;-66
2021/08/05 01:40:08;;;;;;;38.60;19.58;;;13.90;99.90;;;;;;5002055;28;20026;-66
2021/08/05 01:42:34;;;;;;;42.33;19.88;;;13.90;99.90;;;;;;5005733;28;20018;-66
2021/08/05 01:45:01;;;;;;;42.50;20.77;;;14.20;99.90;;;;;;5004588;28;20096;-66
2021/08/05 01:47:28;;;;;;;37.60;18.98;;;14.10;99.90;;;;;;5005485;28;20049;-66
2021/08/05 01:49:54;;;;;;;42.78;19.65;;;14.10;99.90;;;;;;5011011;28;20028;-66
2021/08/05 01:52:19;;;;;;;39.92;19.90;;;14.20;99.90;;;;;;5005516;28;20470;-66
2021/08/05 01:54:46;;;;;;;36.60;17.95;;;14.20;99.90;;;;;;5004011;28;20034;-65
2021/08/05 01:57:13;;;;;;;41.28;19.20;;;14.20;99.90;;;;;;5007768;28;20034;-65
2021/08/05 01:59:39;;;;;;;44.90;19.85;;;14.20;99.90;;;;;;5005250;28;20026;-65
2021/08/05 02:02:06;;;;;;;34.15;17.30;;;14.20;99.90;;;;;;4994693;28;20390;-65
2021/08/05 02:04:44;;;;;;;33.35;17.27;;;14.40;99.90;;;;;;5005762;28;20065;-65
2021/08/05 02:07:19;;;;;;;32.58;16.30;;;14.50;99.90;;;;;;5006438;28;20550;-65
2021/08/05 02:10:02;;;;;;;31.88;16.85;;;14.40;99.90;;;;;;5007865;28;20018;-65
2021/08/05 02:12:32;;;;;;;29.70;15.15;;;14.40;99.90;;;;;;5009391;28;20038;-65
2021/08/05 02:15:02;;;;;;;28.90;15.02;;;14.30;99.90;;;;;;5005604;28;20033;-65
2021/08/05 02:17:30;;;;;;;28.55;14.40;;;14.30;99.90;;;;;;5010617;28;20065;-65
2021/08/05 02:19:56;;;;;;;28.33;14.80;;;14.20;99.90;;;;;;5008683;28;20058;-65
2021/08/05 02:22:22;;;;;;;26.58;14.48;;;14.10;99.90;;;;;;5009841;28;20026;-65
2021/08/05 02:24:48;;;;;;;24.90;13.85;;;14.00;99.90;;;;;;5008346;28;20042;-65
2021/08/05 02:27:14;;;;;;;23.13;12.68;;;14.10;99.90;;;;;;5008964;28;20148;-65
2021/08/05 02:29:40;;;;;;;22.90;13.18;;;14.20;99.90;;;;;;5008504;28;20109;-65
2021/08/05 02:32:08;;;;;;;25.92;13.73;;;14.20;99.90;;;;;;5005183;28;20506;-65
2021/08/05 02:34:35;;;;;;;26.52;14.02;;;14.20;99.90;;;;;;5009212;28;20030;-65
2021/08/05 02:37:01;;;;;;;24.27;14.02;;;14.20;99.90;;;;;;5008181;28;20042;-65
2021/08/05 02:39:27;;;;;;;24.50;13.15;;;14.40;99.90;;;;;;4992051;28;20121;-65
2021/08/05 02:41:54;;;;;;;22.27;12.02;;;14.30;99.90;;;;;;5007448;28;20525;-64
2021/08/05 02:44:20;;;;;;;23.50;12.75;;;14.20;99.90;;;;;;5010905;28;20038;-65
2021/08/05 02:46:47;;;;;;;23.25;13.23;;;14.20;99.90;;;;;;5004399;28;20030;-65
2021/08/05 02:49:15;;;;;;;24.25;12.30;;;14.20;99.90;;;;;;5008833;28;20049;-65
2021/08/05 02:51:41;;;;;;;24.25;12.40;;;14.00;99.90;;;;;;5008651;28;20022;-65
2021/08/05 02:54:06;;;;;;;22.83;12.40;;;14.20;99.90;;;;;;5005831;28;20113;-65
2021/08/05 02:56:33;;;;;;;25.50;12.38;;;14.10;99.90;;;;;;5008674;28;20164;-65
2021/08/05 02:59:00;;;;;;;22.92;12.43;;;14.00;99.90;;;;;;5007574;28;20095;-65
2021/08/05 03:01:25;;;;;;;23.85;13.00;;;14.00;99.90;;;;;;5007935;28;20079;-65
2021/08/05 03:03:52;;;;;;;22.17;12.77;;;13.20;99.90;;;;;;5008556;28;20034;-65
2021/08/05 03:06:25;;;;;;;24.70;12.52;;;14.20;99.90;;;;;;4990467;28;20026;-64
2021/08/05 03:08:51;;;;;;;25.70;13.02;;;14.30;99.90;;;;;;5007901;28;20029;-64
2021/08/05 03:11:16;;;;;;;27.30;13.15;;;14.40;99.90;;;;;;5008015;28;20033;-65
2021/08/05 03:13:42;;;;;;;24.67;13.10;;;14.30;99.90;;;;;;4992702;28;20041;-64
2021/08/05 03:16:08;;;;;;;23.52;12.40;;;14.10;99.90;;;;;;5007414;28;20033;-64
2021/08/05 03:18:33;;;;;;;23.52;13.85;;;14.10;99.90;;;;;;5008633;28;20050;-64
2021/08/05 03:20:59;;;;;;;25.70;13.05;;;14.30;99.90;;;;;;5007554;28;20064;-65
2021/08/05 03:23:24;;;;;;;22.27;13.23;;;14.10;99.90;;;;;;5006792;28;20192;-64
2021/08/05 03:25:50;;;;;;;25.88;13.35;;;14.00;99.90;;;;;;5005561;28;20041;-65
2021/08/05 03:28:16;;;;;;;22.67;12.40;;;13.90;99.90;;;;;;5008141;28;20535;-65
2021/08/05 03:30:41;;;;;;;23.35;13.20;;;14.10;99.90;;;;;;4991482;28;20041;-64
2021/08/05 03:33:07;;;;;;;21.38;12.70;;;13.90;99.90;;;;;;5009562;28;20021;-64
2021/08/05 03:35:32;;;;;;;26.45;13.85;;;13.80;99.90;;;;;;5008300;28;20433;-64
2021/08/05 03:37:58;;;;;;;24.95;13.43;;;13.90;99.90;;;;;;5003517;28;20038;-66
2021/08/05 03:40:24;;;;;;;24.45;13.23;;;13.90;99.90;;;;;;5006073;28;20107;-64
2021/08/05 03:42:49;;;;;;;22.83;12.98;;;13.80;99.90;;;;;;5006173;28;20037;-65
2021/08/05 03:45:15;;;;;;;26.33;13.43;;;13.70;99.90;;;;;;5007205;28;20033;-64
2021/08/05 03:47:42;;;;;;;22.42;12.93;;;13.60;99.90;;;;;;4988032;28;20041;-65
2021/08/05 03:50:08;;;;;;;25.27;13.60;;;13.60;99.90;;;;;;5004988;28;20049;-64
2021/08/05 03:52:33;;;;;;;28.05;13.63;;;13.60;99.90;;;;;;5006994;28;20029;-64
2021/08/05 03:54:59;;;;;;;23.90;13.57;;;13.70;99.90;;;;;;5005609;28;20488;-64
2021/08/05 03:57:24;;;;;;;25.08;13.30;;;13.80;99.90;;;;;;5007067;28;20410;-65
2021/08/05 03:59:50;;;;;;;25.38;13.35;;;13.70;99.90;;;;;;5005258;28;20031;-65
2021/08/05 04:02:17;;;;;;;26.15;13.77;;;13.50;99.90;;;;;;5006009;28;20036;-65
2021/08/05 04:04:43;;;;;;;26.10;13.45;;;13.50;99.90;;;;;;4986070;28;20041;-64
2021/08/05 04:07:08;;;;;;;23.05;13.20;;;13.50;99.90;;;;;;5010351;28;20024;-64
2021/08/05 04:09:34;;;;;;;25.77;13.75;;;13.50;99.90;;;;;;5004654;28;20028;-64
2021/08/05 04:12:00;;;;;;;27.63;14.35;;;13.50;99.90;;;;;;5001939;28;20033;-64
2021/08/05 04:14:27;;;;;;;25.65;13.73;;;13.50;99.90;;;;;;5004638;28;20030;-63
2021/08/05 04:16:53;;;;;;;25.52;13.60;;;13.50;99.90;;;;;;5005403;28;20493;-63
2021/08/05 04:19:18;;;;;;;25.27;13.07;;;13.50;99.90;;;;;;4987116;28;20029;-64
2021/08/05 04:21:44;;;;;;;22.15;12.90;;;13.50;99.90;;;;;;5005142;28;20099;-64
2021/08/05 04:24:10;;;;;;;26.63;14.60;;;13.90;99.90;;;;;;5006714;28;20037;-63
2021/08/05 04:26:35;;;;;;;23.85;13.32;;;13.90;99.90;;;;;;5002277;28;20042;-63
2021/08/05 04:29:01;;;;;;;24.85;13.55;;;13.90;99.90;;;;;;5004429;28;20266;-65
2021/08/05 04:31:27;;;;;;;25.23;13.55;;;13.80;99.90;;;;;;5002138;28;20132;-64
2021/08/05 04:33:52;;;;;;;29.88;14.45;;;13.70;99.90;;;;;;5003793;28;20034;-64
2021/08/05 04:36:18;;;;;;;26.80;13.77;;;13.70;99.90;;;;;;5004324;28;20682;-65
2021/08/05 04:38:44;;;;;;;28.90;14.20;;;14.00;99.90;;;;;;5005652;28;20022;-65
2021/08/05 04:41:10;;;;;;;24.02;13.70;;;14.20;99.90;;;;;;5004700;28;20092;-65
2021/08/05 04:43:35;;;;;;;32.97;14.25;;;14.40;99.90;;;;;;5003393;28;20408;-64
2021/08/05 04:46:01;;;;;;;26.38;13.25;;;14.50;99.90;;;;;;5003839;28;20042;-64
2021/08/05 04:48:29;;;;;;;25.13;14.10;;;14.50;99.90;;;;;;5005151;28;20038;-65
2021/08/05 04:50:55;;;;;;;25.70;14.05;;;14.50;99.90;;;;;;5004349;28;20065;-65
2021/08/05 04:53:20;;;;;;;24.80;13.82;;;14.40;99.90;;;;;;5005848;28;20050;-65
2021/08/05 04:55:46;;;;;;;25.38;13.85;;;14.30;99.90;;;;;;5002354;28;20029;-66
2021/08/05 04:58:12;;;;;;;24.85;13.00;;;14.10;99.90;;;;;;5006050;28;20022;-65
2021/08/05 05:00:40;;;;;;;24.30;14.07;;;14.00;99.90;;;;;;5005949;28;20087;-65
2021/08/05 05:03:07;;;;;;;27.52;13.73;;;14.10;99.90;;;;;;5004834;28;21147;-65
2021/08/05 05:05:33;;;;;;;29.42;13.57;;;14.00;99.90;;;;;;5006013;28;20060;-66
2021/08/05 05:08:23;;;;;;;25.38;13.48;;;14.00;99.90;;;;;;5005638;28;20052;-65
2021/08/05 05:10:53;;;;;;;25.10;13.23;;;13.90;99.90;;;;;;5006635;28;20084;-65
2021/08/05 05:13:19;;;;;;;26.88;14.15;;;13.90;99.90;;;;;;5003278;28;20022;-65
2021/08/05 05:15:45;;;;;;;28.20;14.65;;;14.00;99.90;;;;;;5002838;28;20491;-66
2021/08/05 05:18:13;;;;;;;26.67;14.98;;;14.10;99.90;;;;;;5004684;28;20133;-66
2021/08/05 05:20:39;;;;;;;28.33;15.38;;;14.30;99.90;;;;;;5006243;28;20143;-66
2021/08/05 05:23:05;;;;;;;30.35;16.42;;;14.40;99.90;;;;;;5006293;28;20456;-66
2021/08/05 05:25:32;;;;;;;30.67;15.60;;;14.50;99.90;;;;;;5008620;28;20081;-66
2021/08/05 05:27:58;;;;;;;28.80;16.38;;;14.80;99.90;;;;;;5005462;28;20428;-66
2021/08/05 05:30:23;;;;;;;27.15;16.05;;;15.00;99.90;;;;;;5005318;28;20030;-66
2021/08/05 05:32:49;;;;;;;31.95;16.85;;;15.10;99.90;;;;;;5005006;28;20439;-66
2021/08/05 05:35:18;;;;;;;32.15;16.98;;;15.10;99.90;;;;;;5006253;28;20071;-66
2021/08/05 05:37:45;;;;;;;31.60;16.45;;;15.30;99.90;;;;;;5004871;28;20026;-66
2021/08/05 05:40:12;;;;;;;28.55;16.33;;;15.40;99.90;;;;;;5005540;28;20179;-66
2021/08/05 05:42:38;;;;;;;32.08;16.58;;;15.50;99.90;;;;;;5004003;28;20433;-66
2021/08/05 05:45:05;;;;;;;30.40;16.48;;;15.70;99.90;;;;;;5001047;28;20081;-66
2021/08/05 05:47:31;;;;;;;31.92;16.77;;;15.90;99.90;;;;;;5005419;28;20038;-66
2021/08/05 05:49:57;;;;;;;28.67;17.10;;;16.10;99.90;;;;;;5001486;28;20053;-66
2021/08/05 05:52:22;;;;;;;30.52;16.75;;;16.30;99.90;;;;;;5005161;28;20076;-66
2021/08/05 05:54:48;;;;;;;27.00;15.88;;;16.50;99.90;;;;;;5003003;28;20494;-66
2021/08/05 05:57:14;;;;;;;27.98;16.83;;;16.70;99.90;;;;;;5004110;28;20079;-67
2021/08/05 05:59:42;;;;;;;30.30;16.27;;;16.80;99.90;;;;;;5000716;28;20038;-67
2021/08/05 06:02:08;;;;;;;25.50;15.40;;;17.00;99.90;;;;;;5000920;28;20084;-67
2021/08/05 06:04:34;;;;;;;28.40;16.60;;;17.50;99.90;;;;;;5004999;28;20509;-68
2021/08/05 06:06:59;;;;;;;28.23;16.25;;;17.50;99.90;;;;;;5003362;28;20048;-67
2021/08/05 06:09:26;;;;;;;28.88;17.13;;;17.80;99.90;;;;;;5003157;28;20156;-68
2021/08/05 06:11:51;;;;;;;28.75;16.17;;;18.20;99.90;;;;;;5004652;28;20026;-68
2021/08/05 06:14:18;;;;;;;26.30;15.30;;;18.50;99.90;;;;;;5004868;28;20014;-68
2021/08/05 06:16:44;;;;;;;26.75;15.82;;;18.70;99.90;;;;;;5004205;28;20763;-68
2021/08/05 06:19:11;;;;;;;27.45;15.23;;;18.70;99.90;;;;;;5005000;28;20061;-68
2021/08/05 06:21:37;;;;;;;26.90;15.60;;;18.90;99.90;;;;;;5005008;28;20051;-67
2021/08/05 06:24:03;;;;;;;26.75;14.80;;;19.10;99.90;;;;;;5004631;28;20481;-68
2021/08/05 06:26:28;;;;;;;26.58;15.48;;;19.20;99.90;;;;;;5004929;28;20037;-68
2021/08/05 06:28:54;;;;;;;33.22;16.88;;;19.20;99.90;;;;;;5011288;28;20052;-68
2021/08/05 06:31:20;;;;;;;27.35;15.68;;;19.30;99.90;;;;;;5005148;28;20121;-68
2021/08/05 06:33:50;;;;;;;25.83;14.70;;;19.50;99.90;;;;;;5004853;28;20061;-68
2021/08/05 06:36:17;;;;;;;24.38;13.45;;;19.50;99.90;;;;;;5005311;28;20125;-69
2021/08/05 06:38:42;;;;;;;24.88;15.00;;;19.80;99.90;;;;;;5003119;28;20442;-68
2021/08/05 06:41:08;;;;;;;24.80;14.23;;;19.90;99.90;;;;;;4999802;28;20026;-67
2021/08/05 06:43:34;;;;;;;24.38;14.63;;;20.00;99.90;;;;;;5003577;28;20362;-68
2021/08/05 06:45:59;;;;;;;24.80;15.07;;;20.20;99.90;;;;;;5001010;28;20501;-68
2021/08/05 06:48:25;;;;;;;23.77;15.10;;;20.40;99.90;;;;;;5004745;28;20671;-68
2021/08/05 06:50:50;;;;;;;25.45;17.25;;;20.70;99.90;;;;;;5004551;28;20026;-67
2021/08/05 06:53:18;;;;;;;25.98;15.98;;;21.00;99.90;;;;;;5008503;28;20084;-68
2021/08/05 06:55:45;;;;;;;27.95;17.60;;;21.30;99.90;;;;;;5009453;28;20030;-67
2021/08/05 06:58:10;;;;;;;28.27;16.13;;;20.60;99.90;;;;;;5008485;28;20022;-68
2021/08/05 07:00:36;;;;;;;28.45;16.48;;;20.40;99.90;;;;;;5009097;28;20462;-67
2021/08/05 07:03:01;;;;;;;26.60;16.08;;;20.20;99.90;;;;;;5008343;28;20056;-68
2021/08/05 07:05:27;;;;;;;28.63;16.83;;;20.40;99.90;;;;;;5006907;28;20065;-68
2021/08/05 07:07:55;;;;;;;29.13;16.27;;;20.40;99.90;;;;;;4994983;28;20026;-68
2021/08/05 07:10:25;;;;;;;28.92;17.10;;;20.60;99.90;;;;;;5008328;28;20105;-67
2021/08/05 07:12:50;;;;;;;28.35;16.95;;;20.60;99.90;;;;;;5008265;28;20025;-68
2021/08/05 07:15:16;;;;;;;28.00;17.08;;;20.30;99.90;;;;;;4996798;28;20466;-68
2021/08/05 07:17:44;;;;;;;29.25;17.33;;;20.40;99.90;;;;;;4992087;28;20042;-67
2021/08/05 07:20:11;;;;;;;30.83;15.75;;;20.40;99.90;;;;;;4986309;28;20058;-67
2021/08/05 07:22:38;;;;;;;30.00;18.10;;;20.00;99.90;;;;;;4989507;28;20460;-68
2021/08/05 07:25:05;;;;;;;27.85;14.45;;;20.10;99.90;;;;;;4989105;28;20278;-67
2021/08/05 07:27:31;;;;;;;29.45;16.50;;;20.30;99.90;;;;;;4989038;28;20450;-68
2021/08/05 07:29:56;;;;;;;27.35;16.83;;;20.20;99.90;;;;;;4986719;28;20156;-68
2021/08/05 07:32:22;;;;;;;27.10;16.77;;;20.40;99.90;;;;;;4988850;28;20021;-68
2021/08/05 07:34:48;;;;;;;26.73;16.63;;;20.60;99.90;;;;;;4988419;28;20030;-68
2021/08/05 07:37:13;;;;;;;28.48;17.13;;;20.70;99.90;;;;;;4988327;28;20482;-68
2021/08/05 07:39:39;;;;;;;27.35;13.98;;;20.80;99.90;;;;;;4987845;28;20037;-68
2021/08/05 07:42:05;;;;;;;25.08;14.13;;;20.80;99.90;;;;;;4988060;28;20053;-68
2021/08/05 07:44:30;;;;;;;26.92;14.95;;;20.70;99.90;;;;;;4988203;28;20069;-67
2021/08/05 07:46:56;;;;;;;25.92;16.60;;;20.40;99.90;;;;;;4987664;28;20068;-68
2021/08/05 07:49:22;;;;;;;30.92;16.73;;;20.40;99.90;;;;;;4986689;28;20039;-67
2021/08/05 07:51:48;;;;;;;26.55;16.25;;;20.40;99.90;;;;;;4985057;28;20041;-67
2021/08/05 07:54:13;;;;;;;26.88;15.77;;;20.50;99.90;;;;;;4987780;28;20026;-68
2021/08/05 07:56:39;;;;;;;27.20;15.88;;;20.70;99.90;;;;;;4987167;28;20094;-68
2021/08/05 07:59:05;;;;;;;25.65;16.25;;;20.50;99.90;;;;;;4987118;28;20026;-68
2021/08/05 08:01:30;;;;;;;25.38;14.75;;;20.50;99.90;;;;;;4986582;28;20092;-68
2021/08/05 08:03:56;;;;;;;27.40;15.80;;;20.30;99.90;;;;;;4983464;28;20027;-68
2021/08/05 08:06:21;;;;;;;24.15;15.30;;;20.40;99.90;;;;;;4986130;28;20030;-68
2021/08/05 08:08:48;;;;;;;23.02;14.27;;;20.60;99.90;;;;;;4985159;28;20026;-68
2021/08/05 08:11:15;;;;;;;23.55;14.40;;;20.60;99.90;;;;;;4987546;28;20358;-67
2021/08/05 08:13:41;;;;;;;19.27;9.75;;;20.80;99.90;;;;;;4986212;28;20085;-67
2021/08/05 08:16:07;;;;;;;23.55;14.45;;;20.70;99.90;;;;;;4986703;28;20026;-67
2021/08/05 08:18:33;;;;;;;21.77;13.60;;;20.50;99.90;;;;;;5002201;28;20086;-68
2021/08/05 08:20:59;;;;;;;21.13;12.30;;;20.90;99.90;;;;;;5002674;28;20053;-68
2021/08/05 08:23:26;;;;;;;22.75;12.95;;;21.30;99.90;;;;;;5005816;28;20116;-68
2021/08/05 08:25:52;;;;;;;23.17;13.43;;;21.60;99.90;;;;;;5004827;28;20044;-68
2021/08/05 08:28:19;;;;;;;26.70;13.65;;;22.30;99.90;;;;;;4990877;28;20405;-68
2021/08/05 08:30:44;;;;;;;22.35;14.10;;;22.50;99.90;;;;;;5003955;28;20473;-67
2021/08/05 08:33:10;;;;;;;22.33;13.20;;;22.90;99.90;;;;;;5006904;28;20096;-68
2021/08/05 08:35:35;;;;;;;22.77;13.50;;;23.40;99.90;;;;;;5006876;28;20109;-68
2021/08/05 08:38:02;;;;;;;24.08;13.80;;;23.90;99.90;;;;;;5005560;28;20084;-68
2021/08/05 08:40:28;;;;;;;21.30;13.38;;;24.00;99.90;;;;;;5005447;28;20133;-68
2021/08/05 08:42:53;;;;;;;20.25;12.20;;;24.40;99.90;;;;;;5004870;28;20533;-68
2021/08/05 08:45:19;;;;;;;18.67;11.65;;;24.90;99.90;;;;;;5002170;28;20044;-68
2021/08/05 08:47:53;;;;;;;17.20;11.30;;;24.80;99.90;;;;;;5006999;28;20022;-68
2021/08/05 08:50:22;;;;;;;19.73;11.80;;;25.00;99.90;;;;;;4991975;28;20037;-68
2021/08/05 08:52:50;;;;;;;19.67;13.00;;;24.70;99.90;;;;;;5005735;28;20037;-68
2021/08/05 08:55:16;;;;;;;18.30;11.70;;;24.60;99.90;;;;;;5005855;28;20037;-68
2021/08/05 08:57:43;;;;;;;18.10;12.00;;;24.50;99.90;;;;;;5002658;28;20030;-68
2021/08/05 09:00:10;;;;;;;19.33;11.27;;;24.70;99.90;;;;;;5005432;28;20022;-68
2021/08/05 09:02:36;;;;;;;13.95;8.15;;;25.20;99.90;;;;;;5005868;28;20100;-68
2021/08/05 09:05:06;;;;;;;16.00;8.82;;;24.80;98.80;;;;;;5005571;28;20141;-68
2021/08/05 09:07:33;;;;;;;15.77;9.98;;;24.30;99.90;;;;;;5002897;28;20034;-68
2021/08/05 09:09:59;;;;;;;14.30;9.13;;;23.90;99.90;;;;;;5005284;28;20028;-68
2021/08/05 09:12:24;;;;;;;14.43;8.07;;;23.60;99.90;;;;;;5006406;28;20101;-68
2021/08/05 09:14:52;;;;;;;14.68;8.43;;;23.10;99.90;;;;;;5002437;28;20473;-68
2021/08/05 09:17:30;;;;;;;16.08;9.50;;;22.90;99.90;;;;;;5005541;28;20033;-68
2021/08/05 09:19:58;;;;;;;15.77;9.80;;;22.90;99.90;;;;;;5004790;28;20038;-68
2021/08/05 09:22:31;;;;;;;14.63;9.32;;;23.20;99.90;;;;;;5003475;28;20030;-68
2021/08/05 09:24:58;;;;;;;15.13;9.48;;;24.20;99.90;;;;;;5005183;28;20397;-68
2021/08/05 09:27:31;;;;;;;15.82;8.07;;;24.30;99.90;;;;;;4991197;28;20655;-68
2021/08/05 09:29:59;;;;;;;18.40;10.23;;;23.90;99.90;;;;;;5004959;28;20144;-68
2021/08/05 09:32:28;;;;;;;17.48;9.57;;;23.70;99.90;;;;;;5002128;28;20556;-67
2021/08/05 09:35:08;;;;;;;15.77;8.65;;;23.80;99.90;;;;;;5004626;28;20041;-68
2021/08/05 09:37:36;;;;;;;14.63;9.45;;;23.80;99.90;;;;;;5006382;28;20030;-68
2021/08/05 09:40:09;;;;;;;16.88;9.05;;;23.80;99.90;;;;;;5005120;28;20053;-68
2021/08/05 09:42:35;;;;;;;15.95;8.93;;;23.10;99.90;;;;;;5001958;28;20018;-68
2021/08/05 09:45:02;;;;;;;16.35;9.32;;;22.40;99.90;;;;;;5004940;28;20137;-68
2021/08/05 09:47:27;;;;;;;16.55;9.45;;;22.20;99.90;;;;;;5005268;28;20030;-68
2021/08/05 09:49:57;;;;;;;14.30;8.70;;;22.40;99.90;;;;;;5004997;28;20040;-68
2021/08/05 09:52:35;;;;;;;14.02;9.10;;;23.40;99.90;;;;;;5005758;28;20017;-68
2021/08/05 09:55:03;;;;;;;13.80;8.57;;;23.90;99.90;;;;;;5003815;28;20026;-68
2021/08/05 09:57:34;;;;;;;16.35;9.48;;;23.90;99.90;;;;;;5004143;28;20113;-68
2021/08/05 10:00:08;;;;;;;13.20;8.68;;;23.50;99.90;;;;;;4998966;28;20201;-68
2021/08/05 10:02:47;;;;;;;14.70;8.95;;;23.60;99.90;;;;;;5001642;28;20036;-68
2021/08/05 10:05:14;;;;;;;14.48;8.45;;;23.60;99.90;;;;;;5001774;28;20036;-69
2021/08/05 10:07:45;;;;;;;14.60;9.25;;;23.90;99.90;;;;;;5003571;28;20029;-68
2021/08/05 10:10:11;;;;;;;16.15;9.57;;;24.30;99.90;;;;;;4998833;28;20382;-68
2021/08/05 10:12:38;;;;;;;13.82;8.93;;;24.60;99.90;;;;;;5005087;28;20694;-68
2021/08/05 10:15:26;;;;;;;13.20;8.88;;;25.00;98.60;;;;;;5004804;28;20577;-68
2021/08/05 10:17:55;;;;;;;16.33;8.98;;;25.00;98.90;;;;;;4943984;29;20054;-68
2021/08/05 10:20:22;;;;;;;13.27;8.60;;;25.20;98.30;;;;;;4924701;29;20058;-68
2021/08/05 10:22:49;;;;;;;15.52;8.23;;;25.10;99.90;;;;;;4949620;28;20430;-68
2021/08/05 10:25:16;;;;;;;13.27;7.72;;;25.20;98.90;;;;;;4944704;28;20042;-68
2021/08/05 10:27:45;;;;;;;13.20;8.35;;;25.10;99.70;;;;;;4950152;28;20019;-68
2021/08/05 10:30:13;;;;;;;11.68;7.47;;;25.50;99.40;;;;;;4947203;28;20058;-68
2021/08/05 10:32:40;;;;;;;13.15;9.00;;;25.80;98.30;;;;;;4947504;28;20475;-68
2021/08/05 10:35:07;;;;;;;13.07;7.85;;;26.00;96.90;;;;;;4950078;28;20174;-68
2021/08/05 10:37:33;;;;;;;14.93;8.20;;;26.00;98.40;;;;;;4952688;28;20122;-68
2021/08/05 10:39:59;;;;;;;13.05;8.65;;;25.90;98.30;;;;;;4947641;28;20058;-69
2021/08/05 10:42:25;;;;;;;14.10;8.57;;;25.20;99.20;;;;;;4938216;29;20065;-68
2021/08/05 10:44:51;;;;;;;13.10;8.68;;;24.90;99.50;;;;;;4945163;28;20696;-68
2021/08/05 10:47:21;;;;;;;12.77;7.97;;;25.10;98.70;;;;;;4946452;28;20095;-68
2021/08/05 10:49:50;;;;;;;13.00;7.53;;;25.30;99.90;;;;;;4944208;28;20047;-68
2021/08/05 10:52:34;;;;;;;15.77;8.30;;;25.40;99.80;;;;;;4949940;28;20500;-68
2021/08/05 10:55:00;;;;;;;14.32;9.52;;;26.00;99.90;;;;;;4972423;28;20061;-69
2021/08/05 10:57:26;;;;;;;13.25;8.48;;;26.70;96.80;;;;;;4994068;28;20068;-68
2021/08/05 11:00:11;;;;;;;12.95;8.43;;;26.60;97.90;;;;;;5005118;28;20029;-69
2021/08/05 11:02:51;;;;;;;14.93;9.00;;;27.10;97.40;;;;;;4997752;28;20114;-67
2021/08/05 11:05:25;;;;;;;;;;;26.90;95.50;;;;;;5006235;28;20568;-68
2021/08/05 11:08:14;;;;;;;12.82;8.13;;;26.70;96.70;;;;;;5006808;28;20353;-68
2021/08/05 11:10:40;;;;;;;14.35;9.55;;;26.20;97.70;;;;;;5007059;28;20441;-68
2021/08/05 11:13:29;;;;;;;14.55;8.93;;;25.90;96.60;;;;;;5003573;28;20209;-68
2021/08/05 11:15:54;;;;;;;16.13;9.80;;;25.90;97.50;;;;;;4944378;28;20031;-70
2021/08/05 11:18:21;;;;;;;13.98;9.68;;;25.40;97.80;;;;;;4934512;29;20051;-67
2021/08/05 11:20:50;;;;;;;13.77;8.73;;;24.70;98.80;;;;;;4926524;29;20036;-67
2021/08/05 11:23:28;;;;;;;13.57;8.82;;;24.30;99.90;;;;;;4928527;29;20766;-67
2021/08/05 11:25:57;;;;;;;13.98;7.03;;;24.60;99.90;;;;;;4928310;29;20035;-67
2021/08/05 11:28:30;;;;;;;14.10;9.52;;;24.40;99.80;;;;;;4928550;29;20123;-67
2021/08/05 11:30:59;;;;;;;15.82;9.45;;;23.80;99.90;;;;;;4925044;29;20039;-67
2021/08/05 11:33:40;;;;;;;18.77;9.55;;;23.30;99.90;;;;;;4928032;29;20629;-67
2021/08/05 11:36:20;;;;;;;15.30;9.60;;;23.60;99.90;;;;;;4927767;29;20126;-66
2021/08/05 11:38:57;;;;;;;15.20;10.00;;;23.20;99.90;;;;;;4923696;29;20171;-67
2021/08/05 11:41:48;;;;;;;17.30;10.57;;;23.30;99.90;;;;;;4924533;29;20028;-66
2021/08/05 11:44:28;;;;;;;16.17;10.10;;;23.10;99.90;;;;;;4924836;29;20055;-67
2021/08/05 11:47:20;;;;;;;16.48;11.35;;;23.20;99.90;;;;;;4923709;29;20419;-67
2021/08/05 11:49:59;;;;;;;17.48;10.80;;;22.80;99.90;;;;;;4925522;29;20027;-67
2021/08/05 11:52:24;;;;;;;17.63;11.93;;;22.70;99.90;;;;;;4934081;28;20506;-68
2021/08/05 11:54:57;;;;;;;16.08;10.98;;;22.60;99.90;;;;;;4967401;28;20126;-67
2021/08/05 11:57:25;;;;;;;18.65;11.20;;;22.40;99.90;;;;;;4966358;28;20451;-67
2021/08/05 11:59:56;;;;;;;14.27;7.97;;;22.30;99.90;;;;;;4966968;28;20494;-67
2021/08/05 12:02:23;;;;;;;12.85;6.05;;;22.10;99.90;;;;;;4962635;28;20439;-67
2021/08/05 12:04:51;;;;;;;10.05;5.57;;;21.50;99.90;;;;;;4965288;28;20134;-67
2021/08/05 12:07:37;;;;;;;9.45;5.25;;;21.30;99.90;;;;;;4961953;28;20031;-67
2021/08/05 12:10:15;;;;;;;10.05;5.47;;;21.10;99.90;;;;;;4967871;28;20034;-67
2021/08/05 12:12:49;;;;;;;11.27;6.28;;;20.80;99.90;;;;;;4967626;28;20470;-67
2021/08/05 12:15:24;;;;;;;11.43;5.25;;;20.90;99.90;;;;;;4962215;28;20031;-67
2021/08/05 12:17:51;;;;;;;8.85;4.60;;;21.00;99.90;;;;;;4984218;28;20092;-67
2021/08/05 12:20:27;;;;;;;8.25;4.15;;;21.10;99.90;;;;;;5006632;28;20425;-67
2021/08/05 12:22:55;;;;;;;8.07;4.18;;;21.40;99.90;;;;;;5005854;28;20030;-67
2021/08/05 12:25:28;;;;;;;8.90;4.60;;;21.50;99.90;;;;;;5005490;28;20029;-66
2021/08/05 12:27:59;;;;;;;8.90;4.38;;;21.30;99.90;;;;;;5005164;28;20045;-67
2021/08/05 12:30:40;;;;;;;10.00;3.85;;;21.20;99.90;;;;;;5006360;28;20029;-66
2021/08/05 12:33:15;;;;;;;8.18;4.05;;;20.80;99.90;;;;;;5006124;28;20022;-66
2021/08/05 12:35:42;;;;;;;8.60;4.00;;;20.50;99.90;;;;;;5006912;28;20087;-66